Auburn, West Virginia
Current Conditions -  °F | °C
As of 2:55 PM on Saturday 25 Oct 2014 (Local Time) from KW22 Reporting Station
Few Clouds Few Clouds  
Wind Chill: 61°   Ceiling: Unl
Heat Index: 61°   Visibility: 10mi
Dew Point: 46°   Wind: 9mph
Humidity: 59%   Direction: 200°SSW
Pressure: 29.91"   Gusts: 20mph
Location:  39.1°N, 80.86°W
Report Text: KW22 251855Z AUTO 20008G17KT 10SM FEW065 16/08 A2991 RMK AO2
Loading
Personal Weather Stations






























Interactive Weather Map
Tropical Storm Tracking
New forecast layout! Learn more

10-Day Weather Forecast

Advertisements
Track Severe Weather on mobile